N388LD YMML-WSSL
Flight info
| Callsign | N388LD |
|---|---|
| Flight time | N/A |
| Altitude | 43000 |
| Route | KEPPA Q168 WR T29 CIN A576 ATMAP M635 ATPOM DCT SJ DCT PONJO DCT RECHI |
| Aircraft | GLF6/M-SBDE2E3FGHIJ4J5M1RWXY/LB1D1 |
Departure
| Time | N/A |
|---|---|
| Airport | Melbourne Airport (YMML) |
Arrival
| Time | 2026-04-24 20:05 |
|---|---|
| Airport | Seletar Airport (WSSL) |
| Time | Latitude | Longitude | Altitude | Speed | Heading |
|---|---|---|---|---|---|
| 2026-04-24 13:21 | -35.59425 | 142.29445 | 43347 ft | 491 kts | 309° |
| 2026-04-24 13:22 | -35.54871 | 142.23239 | 43350 ft | 491 kts | 309° |
| 2026-04-24 13:22 | -35.50320 | 142.17050 | 43349 ft | 490 kts | 309° |
| 2026-04-24 13:23 | -35.45750 | 142.10844 | 43341 ft | 490 kts | 309° |
| 2026-04-24 13:23 | -35.41187 | 142.04662 | 43338 ft | 489 kts | 309° |
| 2026-04-24 13:24 | -35.36647 | 141.98518 | 43340 ft | 489 kts | 309° |
| 2026-04-24 13:24 | -35.32091 | 141.92368 | 43340 ft | 490 kts | 309° |
| 2026-04-24 13:25 | -35.27537 | 141.86229 | 43334 ft | 490 kts | 309° |
| 2026-04-24 13:25 | -35.22955 | 141.80063 | 43335 ft | 490 kts | 309° |
| 2026-04-24 13:26 | -35.18383 | 141.73923 | 43335 ft | 490 kts | 309° |
| 2026-04-24 13:26 | -35.13801 | 141.67780 | 43331 ft | 490 kts | 309° |
| 2026-04-24 13:27 | -35.09232 | 141.61665 | 43329 ft | 489 kts | 309° |
| 2026-04-24 13:27 | -35.04666 | 141.55566 | 43330 ft | 489 kts | 309° |
| 2026-04-24 13:28 | -35.00073 | 141.49443 | 43328 ft | 489 kts | 309° |
| 2026-04-24 13:28 | -34.95503 | 141.43361 | 43333 ft | 489 kts | 308° |
| 2026-04-24 13:29 | -34.90920 | 141.37273 | 43337 ft | 489 kts | 309° |
| 2026-04-24 13:29 | -34.86314 | 141.31163 | 43334 ft | 489 kts | 309° |
| 2026-04-24 13:30 | -34.81743 | 141.25113 | 43331 ft | 489 kts | 309° |
| 2026-04-24 13:30 | -34.77151 | 141.19045 | 43329 ft | 489 kts | 309° |
| 2026-04-24 13:31 | -34.72555 | 141.12982 | 43320 ft | 489 kts | 309° |
| 2026-04-24 13:31 | -34.67962 | 141.06935 | 43315 ft | 489 kts | 309° |
| 2026-04-24 13:32 | -34.63362 | 141.00888 | 43314 ft | 488 kts | 309° |
| 2026-04-24 13:32 | -34.58781 | 140.94878 | 43317 ft | 488 kts | 309° |
| 2026-04-24 13:33 | -34.54180 | 140.88852 | 43303 ft | 488 kts | 309° |
| 2026-04-24 13:33 | -34.49585 | 140.82843 | 43310 ft | 488 kts | 309° |
| 2026-04-24 13:34 | -34.44982 | 140.76834 | 43303 ft | 487 kts | 309° |
| 2026-04-24 13:34 | -34.40368 | 140.70822 | 43303 ft | 487 kts | 309° |
| 2026-04-24 13:35 | -34.35773 | 140.64845 | 43296 ft | 487 kts | 309° |
| 2026-04-24 13:35 | -34.31171 | 140.58870 | 43294 ft | 486 kts | 309° |
| 2026-04-24 13:36 | -34.26570 | 140.52905 | 43293 ft | 486 kts | 309° |
| 2026-04-24 13:36 | -34.21973 | 140.46957 | 43293 ft | 485 kts | 308° |
| 2026-04-24 13:37 | -34.17371 | 140.41013 | 43299 ft | 486 kts | 308° |
| 2026-04-24 13:37 | -34.12801 | 140.35120 | 43295 ft | 485 kts | 308° |
| 2026-04-24 13:38 | -34.08195 | 140.29190 | 43300 ft | 485 kts | 309° |
| 2026-04-24 13:38 | -34.03595 | 140.23277 | 43303 ft | 485 kts | 309° |
| 2026-04-24 13:39 | -33.98974 | 140.17348 | 43303 ft | 485 kts | 309° |
| 2026-04-24 13:39 | -33.94388 | 140.11473 | 43301 ft | 485 kts | 309° |
| 2026-04-24 13:40 | -33.89779 | 140.05580 | 43303 ft | 485 kts | 309° |
| 2026-04-24 13:40 | -33.85182 | 139.99713 | 43299 ft | 484 kts | 309° |
| 2026-04-24 13:41 | -33.80581 | 139.93849 | 43291 ft | 483 kts | 308° |
| 2026-04-24 13:41 | -33.75958 | 139.87968 | 43293 ft | 483 kts | 308° |
| 2026-04-24 13:42 | -33.71363 | 139.82132 | 43292 ft | 482 kts | 308° |
| 2026-04-24 13:42 | -33.66775 | 139.76314 | 43280 ft | 483 kts | 308° |
| 2026-04-24 13:43 | -33.62153 | 139.70462 | 43285 ft | 482 kts | 308° |
| 2026-04-24 13:43 | -33.57547 | 139.64642 | 43283 ft | 482 kts | 308° |
| 2026-04-24 13:44 | -33.52945 | 139.58835 | 43286 ft | 482 kts | 308° |
| 2026-04-24 13:44 | -33.48317 | 139.53005 | 43288 ft | 482 kts | 308° |
| 2026-04-24 13:45 | -33.43713 | 139.47217 | 43292 ft | 482 kts | 308° |
| 2026-04-24 13:45 | -33.39111 | 139.41438 | 43296 ft | 482 kts | 308° |
| 2026-04-24 13:46 | -33.34414 | 139.35776 | 43294 ft | 482 kts | 309° |
| 2026-04-24 13:46 | -33.29676 | 139.30089 | 43306 ft | 482 kts | 310° |
| 2026-04-24 13:47 | -33.24964 | 139.24442 | 43317 ft | 482 kts | 309° |
| 2026-04-24 13:47 | -33.20219 | 139.18765 | 43318 ft | 483 kts | 309° |
| 2026-04-24 13:48 | -33.15510 | 139.13141 | 43325 ft | 482 kts | 309° |
| 2026-04-24 13:48 | -33.10767 | 139.07484 | 43327 ft | 482 kts | 309° |
| 2026-04-24 13:49 | -33.06054 | 139.01872 | 43333 ft | 481 kts | 309° |
| 2026-04-24 13:49 | -33.01301 | 138.96222 | 43335 ft | 482 kts | 309° |
| 2026-04-24 13:50 | -32.96572 | 138.90611 | 43337 ft | 481 kts | 309° |
| 2026-04-24 13:50 | -32.91861 | 138.85028 | 43339 ft | 480 kts | 309° |
| 2026-04-24 13:51 | -32.87180 | 138.79489 | 43329 ft | 480 kts | 309° |
| 2026-04-24 13:51 | -32.82441 | 138.73892 | 43321 ft | 480 kts | 309° |
| 2026-04-24 13:52 | -32.77717 | 138.68320 | 43316 ft | 479 kts | 309° |
| 2026-04-24 13:52 | -32.73006 | 138.62773 | 43318 ft | 479 kts | 309° |
| 2026-04-24 13:53 | -32.68291 | 138.57233 | 43302 ft | 478 kts | 308° |
| 2026-04-24 13:53 | -32.63595 | 138.51718 | 43301 ft | 478 kts | 308° |
| 2026-04-24 13:54 | -32.58855 | 138.46166 | 43299 ft | 478 kts | 308° |
| 2026-04-24 13:54 | -32.54137 | 138.40643 | 43287 ft | 478 kts | 308° |
| 2026-04-24 13:55 | -32.49434 | 138.35149 | 43281 ft | 477 kts | 308° |
| 2026-04-24 13:55 | -32.44707 | 138.29634 | 43285 ft | 478 kts | 308° |
| 2026-04-24 13:56 | -32.40000 | 138.24153 | 43285 ft | 477 kts | 308° |
| 2026-04-24 13:56 | -32.35275 | 138.18658 | 43275 ft | 477 kts | 308° |
| 2026-04-24 13:57 | -32.30559 | 138.13184 | 43282 ft | 475 kts | 307° |
| 2026-04-24 13:57 | -32.25862 | 138.07738 | 43284 ft | 474 kts | 307° |
| 2026-04-24 13:58 | -32.21140 | 138.02272 | 43289 ft | 473 kts | 307° |
| 2026-04-24 13:58 | -32.16463 | 137.96869 | 43276 ft | 473 kts | 307° |
| 2026-04-24 13:59 | -32.11769 | 137.91450 | 43264 ft | 472 kts | 307° |
| 2026-04-24 13:59 | -32.07099 | 137.86070 | 43264 ft | 471 kts | 307° |
| 2026-04-24 14:00 | -32.02460 | 137.80731 | 43257 ft | 471 kts | 306° |
| 2026-04-24 14:00 | -31.97773 | 137.75349 | 43261 ft | 470 kts | 306° |
| 2026-04-24 14:01 | -31.93131 | 137.70024 | 43265 ft | 469 kts | 306° |
| 2026-04-24 14:01 | -31.88477 | 137.64693 | 43242 ft | 468 kts | 306° |
| 2026-04-24 14:02 | -31.83807 | 137.59352 | 43239 ft | 466 kts | 305° |
| 2026-04-24 14:02 | -31.79192 | 137.54085 | 43254 ft | 464 kts | 305° |
| 2026-04-24 14:03 | -31.74565 | 137.48807 | 43243 ft | 466 kts | 305° |
| 2026-04-24 14:03 | -31.69918 | 137.43517 | 43243 ft | 465 kts | 304° |
| 2026-04-24 14:04 | -31.65324 | 137.38292 | 43244 ft | 462 kts | 304° |
| 2026-04-24 14:04 | -31.60719 | 137.33064 | 43260 ft | 463 kts | 304° |
| 2026-04-24 14:05 | -31.56106 | 137.27837 | 43256 ft | 463 kts | 304° |
| 2026-04-24 14:05 | -31.51496 | 137.22618 | 43258 ft | 463 kts | 304° |
| 2026-04-24 14:06 | -31.46892 | 137.17412 | 43252 ft | 463 kts | 304° |
| 2026-04-24 14:06 | -31.42266 | 137.12193 | 43266 ft | 461 kts | 304° |
| 2026-04-24 14:07 | -31.37666 | 137.07008 | 43261 ft | 460 kts | 304° |
| 2026-04-24 14:07 | -31.33096 | 137.01865 | 43259 ft | 460 kts | 303° |
| 2026-04-24 14:08 | -31.28488 | 136.96684 | 43263 ft | 459 kts | 304° |
| 2026-04-24 14:08 | -31.23901 | 136.91539 | 43252 ft | 457 kts | 304° |
| 2026-04-24 14:09 | -31.19332 | 136.86417 | 43255 ft | 459 kts | 303° |
| 2026-04-24 14:09 | -31.14726 | 136.81261 | 43230 ft | 458 kts | 304° |
| 2026-04-24 14:10 | -31.10005 | 136.76239 | 43261 ft | 461 kts | 305° |
| 2026-04-24 14:10 | -31.05264 | 136.71225 | 43256 ft | 463 kts | 304° |
| 2026-04-24 14:11 | -31.00530 | 136.66226 | 43238 ft | 461 kts | 305° |
| 2026-04-24 14:12 | -30.93385 | 136.58694 | 43231 ft | 461 kts | 305° |
| 2026-04-24 14:12 | -30.88649 | 136.53713 | 43218 ft | 460 kts | 305° |
| 2026-04-24 14:13 | -30.83920 | 136.48743 | 43217 ft | 460 kts | 305° |
| 2026-04-24 14:13 | -30.79184 | 136.43771 | 43207 ft | 459 kts | 304° |
| 2026-04-24 14:14 | -30.74450 | 136.38812 | 43217 ft | 460 kts | 305° |
| 2026-04-24 14:14 | -30.67298 | 136.31328 | 43234 ft | 464 kts | 306° |
| 2026-04-24 14:15 | -30.62550 | 136.26370 | 43243 ft | 462 kts | 306° |
| 2026-04-24 14:15 | -30.57754 | 136.21367 | 43231 ft | 462 kts | 306° |
| 2026-04-24 14:16 | -30.52998 | 136.16414 | 43234 ft | 462 kts | 306° |
| 2026-04-24 14:17 | -30.45836 | 136.08969 | 43240 ft | 464 kts | 306° |
| 2026-04-24 14:17 | -30.38662 | 136.01527 | 43247 ft | 463 kts | 306° |
| 2026-04-24 14:18 | -30.33859 | 135.96552 | 43246 ft | 463 kts | 306° |
| 2026-04-24 14:18 | -30.29097 | 135.91626 | 43240 ft | 463 kts | 306° |
| 2026-04-24 14:19 | -30.24287 | 135.86656 | 43228 ft | 464 kts | 306° |
| 2026-04-24 14:19 | -30.19481 | 135.81700 | 43241 ft | 465 kts | 306° |
| 2026-04-24 14:20 | -30.14643 | 135.76717 | 43234 ft | 464 kts | 306° |
| 2026-04-24 14:20 | -30.09846 | 135.71782 | 43240 ft | 466 kts | 306° |
| 2026-04-24 14:21 | -30.05025 | 135.66830 | 43244 ft | 464 kts | 306° |
| 2026-04-24 14:21 | -30.00230 | 135.61912 | 43260 ft | 464 kts | 307° |
| 2026-04-24 14:22 | -29.97827 | 135.59450 | 43497 ft | 460 kts | 306° |
| 2026-04-24 14:22 | -29.95437 | 135.57002 | 43874 ft | 455 kts | 306° |
| 2026-04-24 14:22 | -29.90739 | 135.52194 | 44590 ft | 451 kts | 306° |
| 2026-04-24 14:23 | -29.88404 | 135.49808 | 44922 ft | 450 kts | 306° |
| 2026-04-24 14:23 | -29.86049 | 135.47404 | 45256 ft | 449 kts | 306° |
| 2026-04-24 14:23 | -29.83766 | 135.45071 | 45577 ft | 448 kts | 306° |
| 2026-04-24 14:23 | -29.81438 | 135.42697 | 45913 ft | 448 kts | 306° |
| 2026-04-24 14:24 | -29.79084 | 135.40297 | 46234 ft | 448 kts | 306° |
| 2026-04-24 14:24 | -29.76773 | 135.37941 | 46559 ft | 447 kts | 306° |
| 2026-04-24 14:24 | -29.74452 | 135.35579 | 46884 ft | 447 kts | 306° |
| 2026-04-24 14:24 | -29.72141 | 135.33226 | 47173 ft | 446 kts | 307° |
| 2026-04-24 14:25 | -29.69796 | 135.30841 | 47202 ft | 451 kts | 307° |
| 2026-04-24 14:25 | -29.65092 | 135.26060 | 47213 ft | 456 kts | 308° |
| 2026-04-24 14:26 | -29.60315 | 135.21216 | 47220 ft | 460 kts | 307° |
| 2026-04-24 14:26 | -29.55512 | 135.16350 | 47214 ft | 461 kts | 307° |
| 2026-04-24 14:27 | -29.50713 | 135.11494 | 47203 ft | 460 kts | 308° |
| 2026-04-24 14:27 | -29.45926 | 135.06657 | 47209 ft | 460 kts | 307° |
| 2026-04-24 14:28 | -29.41118 | 135.01802 | 47207 ft | 460 kts | 308° |
| 2026-04-24 14:28 | -29.36299 | 134.96948 | 47194 ft | 460 kts | 308° |
| 2026-04-24 14:29 | -29.31507 | 134.92123 | 47203 ft | 461 kts | 308° |
| 2026-04-24 14:29 | -29.26673 | 134.87265 | 47208 ft | 460 kts | 308° |
| 2026-04-24 14:30 | -29.22672 | 134.83247 | 47204 ft | 461 kts | 308° |
| 2026-04-24 14:30 | -29.17050 | 134.77609 | 47201 ft | 464 kts | 308° |
| 2026-04-24 14:31 | -29.12188 | 134.72742 | 47209 ft | 463 kts | 308° |
| 2026-04-24 14:31 | -29.07317 | 134.67871 | 47211 ft | 466 kts | 308° |
| 2026-04-24 14:32 | -29.02469 | 134.63028 | 47214 ft | 465 kts | 308° |
| 2026-04-24 14:32 | -28.97620 | 134.58191 | 47217 ft | 463 kts | 309° |
| 2026-04-24 14:33 | -28.92762 | 134.53358 | 47214 ft | 464 kts | 309° |
| 2026-04-24 14:33 | -28.87914 | 134.48543 | 47197 ft | 465 kts | 309° |
| 2026-04-24 14:34 | -28.83021 | 134.43692 | 47198 ft | 464 kts | 309° |
| 2026-04-24 14:34 | -28.78144 | 134.38861 | 47212 ft | 465 kts | 309° |
| 2026-04-24 14:35 | -28.73298 | 134.34067 | 47207 ft | 466 kts | 310° |
| 2026-04-24 14:35 | -28.68410 | 134.29237 | 47205 ft | 466 kts | 310° |
| 2026-04-24 14:36 | -28.63517 | 134.24408 | 47221 ft | 467 kts | 310° |
| 2026-04-24 14:36 | -28.58604 | 134.19566 | 47223 ft | 468 kts | 310° |
| 2026-04-24 14:37 | -28.53693 | 134.14735 | 47214 ft | 465 kts | 310° |
| 2026-04-24 14:37 | -28.48827 | 134.09952 | 47214 ft | 463 kts | 310° |
| 2026-04-24 14:38 | -28.43972 | 134.05185 | 47221 ft | 462 kts | 311° |
| 2026-04-24 14:38 | -28.39077 | 134.00386 | 47223 ft | 464 kts | 311° |
| 2026-04-24 14:39 | -28.34201 | 133.95615 | 47230 ft | 465 kts | 311° |
| 2026-04-24 14:39 | -28.29307 | 133.90826 | 47217 ft | 465 kts | 311° |
| 2026-04-24 14:40 | -28.24440 | 133.86073 | 47222 ft | 463 kts | 311° |
| 2026-04-24 14:40 | -28.19531 | 133.81284 | 47221 ft | 464 kts | 311° |
| 2026-04-24 14:41 | -28.14663 | 133.76543 | 47239 ft | 466 kts | 310° |
| 2026-04-24 14:41 | -28.09761 | 133.71773 | 47250 ft | 465 kts | 311° |
| 2026-04-24 14:42 | -28.04827 | 133.66978 | 47240 ft | 466 kts | 311° |
| 2026-04-24 14:42 | -27.99959 | 133.62253 | 47228 ft | 463 kts | 311° |
| 2026-04-24 14:43 | -27.95049 | 133.57494 | 47237 ft | 464 kts | 311° |
| 2026-04-24 14:43 | -27.90184 | 133.52783 | 47239 ft | 464 kts | 310° |
| 2026-04-24 14:44 | -27.85291 | 133.48051 | 47231 ft | 464 kts | 310° |
| 2026-04-24 14:44 | -27.80360 | 133.43288 | 47228 ft | 465 kts | 311° |
| 2026-04-24 14:45 | -27.75478 | 133.38580 | 47228 ft | 465 kts | 311° |
| 2026-04-24 14:45 | -27.70536 | 133.33818 | 47243 ft | 466 kts | 310° |
| 2026-04-24 14:46 | -27.65610 | 133.29077 | 47237 ft | 464 kts | 311° |
| 2026-04-24 14:46 | -27.60706 | 133.24364 | 47252 ft | 465 kts | 311° |
| 2026-04-24 14:47 | -27.55816 | 133.19672 | 47247 ft | 464 kts | 310° |
| 2026-04-24 14:47 | -27.50913 | 133.14969 | 47253 ft | 464 kts | 311° |
| 2026-04-24 14:48 | -27.45981 | 133.10248 | 47258 ft | 464 kts | 310° |
| 2026-04-24 14:48 | -27.41056 | 133.05537 | 47252 ft | 466 kts | 311° |
| 2026-04-24 14:49 | -27.36142 | 133.00844 | 47254 ft | 466 kts | 311° |
| 2026-04-24 14:49 | -27.31184 | 132.96112 | 47248 ft | 465 kts | 311° |
| 2026-04-24 14:50 | -27.26251 | 132.91411 | 47247 ft | 465 kts | 311° |
| 2026-04-24 14:50 | -27.21308 | 132.86706 | 47238 ft | 465 kts | 311° |
| 2026-04-24 14:51 | -27.16398 | 132.82039 | 47241 ft | 466 kts | 311° |
| 2026-04-24 14:51 | -27.11459 | 132.77348 | 47244 ft | 463 kts | 311° |
| 2026-04-24 14:52 | -27.06519 | 132.72665 | 47243 ft | 464 kts | 311° |
| 2026-04-24 14:52 | -27.01596 | 132.67999 | 47253 ft | 466 kts | 311° |
| 2026-04-24 14:53 | -26.96676 | 132.63347 | 47259 ft | 464 kts | 311° |
| 2026-04-24 14:53 | -26.91750 | 132.58691 | 47258 ft | 462 kts | 311° |
| 2026-04-24 14:54 | -26.86841 | 132.54068 | 47247 ft | 463 kts | 311° |
| 2026-04-24 14:54 | -26.81904 | 132.49420 | 47249 ft | 462 kts | 311° |
| 2026-04-24 14:55 | -26.77821 | 132.45583 | 47246 ft | 464 kts | 311° |
| 2026-04-24 14:55 | -26.72076 | 132.40189 | 47241 ft | 463 kts | 311° |
| 2026-04-24 14:56 | -26.67141 | 132.35561 | 47241 ft | 464 kts | 311° |
| 2026-04-24 14:56 | -26.62208 | 132.30939 | 47249 ft | 463 kts | 311° |
| 2026-04-24 14:57 | -26.57267 | 132.26317 | 47257 ft | 463 kts | 311° |
| 2026-04-24 14:57 | -26.52356 | 132.21725 | 47258 ft | 465 kts | 311° |
| 2026-04-24 14:58 | -26.47386 | 132.17088 | 47262 ft | 463 kts | 311° |
| 2026-04-24 14:58 | -26.42478 | 132.12512 | 47266 ft | 460 kts | 311° |
| 2026-04-24 14:59 | -26.37566 | 132.07936 | 47282 ft | 461 kts | 311° |
| 2026-04-24 14:59 | -26.32626 | 132.03343 | 47289 ft | 460 kts | 311° |
| 2026-04-24 15:00 | -26.27717 | 131.98781 | 47303 ft | 461 kts | 311° |
| 2026-04-24 15:00 | -26.22797 | 131.94214 | 47307 ft | 463 kts | 311° |
| 2026-04-24 15:01 | -26.17847 | 131.89625 | 47295 ft | 462 kts | 311° |
| 2026-04-24 15:01 | -26.12919 | 131.85062 | 47286 ft | 461 kts | 311° |
| 2026-04-24 15:02 | -26.08007 | 131.80519 | 47281 ft | 461 kts | 311° |
| 2026-04-24 15:02 | -26.03710 | 131.76547 | 47275 ft | 461 kts | 311° |
| 2026-04-24 15:03 | -25.98800 | 131.72017 | 47280 ft | 461 kts | 311° |
| 2026-04-24 15:03 | -25.93876 | 131.67476 | 47275 ft | 460 kts | 311° |
| 2026-04-24 15:04 | -25.88950 | 131.62939 | 47265 ft | 459 kts | 311° |
| 2026-04-24 15:04 | -25.84051 | 131.58434 | 47262 ft | 457 kts | 311° |
| 2026-04-24 15:05 | -25.79160 | 131.53938 | 47259 ft | 459 kts | 311° |
| 2026-04-24 15:05 | -25.74247 | 131.49428 | 47258 ft | 459 kts | 311° |
| 2026-04-24 15:06 | -25.69348 | 131.44939 | 47254 ft | 458 kts | 311° |
| 2026-04-24 15:06 | -25.64435 | 131.40437 | 47250 ft | 460 kts | 311° |
| 2026-04-24 15:07 | -25.59502 | 131.35927 | 47253 ft | 458 kts | 311° |
| 2026-04-24 15:07 | -25.54584 | 131.31432 | 47259 ft | 459 kts | 312° |
| 2026-04-24 15:08 | -25.49663 | 131.26939 | 47260 ft | 460 kts | 312° |
| 2026-04-24 15:08 | -25.44729 | 131.22440 | 47259 ft | 460 kts | 312° |
| 2026-04-24 15:09 | -25.39807 | 131.17958 | 47268 ft | 459 kts | 312° |
| 2026-04-24 15:09 | -25.34875 | 131.13470 | 47270 ft | 458 kts | 312° |
| 2026-04-24 15:10 | -25.29978 | 131.09021 | 47275 ft | 457 kts | 312° |
| 2026-04-24 15:10 | -25.25054 | 131.04550 | 47279 ft | 457 kts | 312° |
| 2026-04-24 15:11 | -25.20178 | 131.00130 | 47280 ft | 456 kts | 312° |
| 2026-04-24 15:11 | -25.15361 | 130.95624 | 47273 ft | 454 kts | 310° |
| 2026-04-24 15:12 | -25.10668 | 130.90990 | 47261 ft | 453 kts | 310° |
| 2026-04-24 15:12 | -25.03618 | 130.84050 | 47248 ft | 452 kts | 310° |
| 2026-04-24 15:13 | -24.98922 | 130.79434 | 47241 ft | 454 kts | 310° |
| 2026-04-24 15:13 | -24.94203 | 130.74805 | 47243 ft | 454 kts | 310° |
| 2026-04-24 15:14 | -24.89484 | 130.70175 | 47239 ft | 451 kts | 310° |
| 2026-04-24 15:14 | -24.84830 | 130.65617 | 47233 ft | 450 kts | 310° |
| 2026-04-24 15:15 | -24.80128 | 130.61015 | 47222 ft | 451 kts | 310° |
| 2026-04-24 15:15 | -24.75463 | 130.56456 | 47221 ft | 452 kts | 310° |
| 2026-04-24 15:16 | -24.70749 | 130.51852 | 47214 ft | 453 kts | 310° |
| 2026-04-24 15:16 | -24.66063 | 130.47281 | 47213 ft | 451 kts | 311° |
| 2026-04-24 15:17 | -24.61362 | 130.42702 | 47212 ft | 450 kts | 310° |
| 2026-04-24 15:17 | -24.56671 | 130.38135 | 47207 ft | 451 kts | 311° |
| 2026-04-24 15:18 | -24.51987 | 130.33580 | 47225 ft | 450 kts | 311° |
| 2026-04-24 15:18 | -24.47288 | 130.29015 | 47226 ft | 450 kts | 311° |
| 2026-04-24 15:19 | -24.42608 | 130.24474 | 47222 ft | 450 kts | 311° |
| 2026-04-24 15:19 | -24.37921 | 130.19930 | 47222 ft | 450 kts | 311° |
| 2026-04-24 15:20 | -24.33232 | 130.15389 | 47224 ft | 450 kts | 312° |
| 2026-04-24 15:20 | -24.28533 | 130.10844 | 47222 ft | 450 kts | 312° |
| 2026-04-24 15:21 | -24.23858 | 130.06325 | 47214 ft | 450 kts | 312° |
| 2026-04-24 15:21 | -24.19159 | 130.01790 | 47216 ft | 451 kts | 312° |
| 2026-04-24 15:22 | -24.14462 | 129.97261 | 47214 ft | 450 kts | 312° |
| 2026-04-24 15:23 | -24.07422 | 129.90479 | 47222 ft | 450 kts | 312° |
| 2026-04-24 15:23 | -24.00371 | 129.83697 | 47211 ft | 450 kts | 313° |
| 2026-04-24 15:25 | -23.89384 | 129.73151 | 47214 ft | 449 kts | 313° |
| 2026-04-24 15:26 | -23.76895 | 129.61194 | 47209 ft | 448 kts | 312° |
| 2026-04-24 15:27 | -23.62825 | 129.47760 | 47202 ft | 449 kts | 313° |
| 2026-04-24 15:29 | -23.48732 | 129.34346 | 47205 ft | 449 kts | 313° |
| 2026-04-24 15:31 | -23.32277 | 129.18730 | 47226 ft | 449 kts | 313° |
| 2026-04-24 15:33 | -23.13440 | 129.00922 | 47220 ft | 449 kts | 314° |
| 2026-04-24 15:34 | -23.01647 | 128.89807 | 47200 ft | 450 kts | 314° |
| 2026-04-24 15:35 | -22.89807 | 128.78679 | 47190 ft | 451 kts | 314° |
| 2026-04-24 15:36 | -22.85085 | 128.74246 | 47186 ft | 450 kts | 314° |
| 2026-04-24 15:36 | -22.77998 | 128.67606 | 47183 ft | 450 kts | 314° |
| 2026-04-24 15:37 | -22.73257 | 128.63167 | 47179 ft | 450 kts | 314° |
| 2026-04-24 15:37 | -22.68538 | 128.58752 | 47173 ft | 452 kts | 315° |
| 2026-04-24 15:38 | -22.63767 | 128.54295 | 47172 ft | 450 kts | 314° |
| 2026-04-24 15:38 | -22.59030 | 128.49873 | 47169 ft | 450 kts | 314° |
| 2026-04-24 15:39 | -22.54287 | 128.45448 | 47169 ft | 451 kts | 314° |
| 2026-04-24 15:39 | -22.49558 | 128.41042 | 47167 ft | 451 kts | 315° |
| 2026-04-24 15:40 | -22.44797 | 128.36612 | 47164 ft | 451 kts | 314° |
| 2026-04-24 15:40 | -22.40032 | 128.32179 | 47175 ft | 452 kts | 315° |
| 2026-04-24 15:41 | -22.35255 | 128.27740 | 47176 ft | 453 kts | 315° |
| 2026-04-24 15:41 | -22.30483 | 128.23312 | 47173 ft | 453 kts | 315° |
| 2026-04-24 15:42 | -22.25714 | 128.18887 | 47173 ft | 453 kts | 315° |
| 2026-04-24 15:42 | -22.20932 | 128.14458 | 47168 ft | 454 kts | 315° |
| 2026-04-24 15:43 | -22.16128 | 128.10011 | 47171 ft | 457 kts | 315° |
| 2026-04-24 15:43 | -22.11330 | 128.05574 | 47161 ft | 457 kts | 315° |
| 2026-04-24 15:44 | -22.06513 | 128.01123 | 47166 ft | 456 kts | 315° |
| 2026-04-24 15:44 | -22.01702 | 127.96683 | 47169 ft | 455 kts | 315° |
| 2026-04-24 15:45 | -21.96894 | 127.92248 | 47173 ft | 456 kts | 315° |
| 2026-04-24 15:45 | -21.92069 | 127.87804 | 47173 ft | 456 kts | 315° |
| 2026-04-24 15:46 | -21.87248 | 127.83365 | 47173 ft | 457 kts | 315° |
| 2026-04-24 15:46 | -21.82405 | 127.78912 | 47176 ft | 456 kts | 315° |
| 2026-04-24 15:47 | -21.77613 | 127.74509 | 47175 ft | 455 kts | 315° |
| 2026-04-24 15:47 | -21.72802 | 127.70092 | 47180 ft | 456 kts | 316° |
| 2026-04-24 15:48 | -21.68027 | 127.65713 | 47179 ft | 456 kts | 315° |
| 2026-04-24 15:48 | -21.63195 | 127.61285 | 47177 ft | 456 kts | 315° |
| 2026-04-24 15:49 | -21.58379 | 127.56876 | 47183 ft | 456 kts | 316° |
| 2026-04-24 15:49 | -21.53544 | 127.52454 | 47177 ft | 456 kts | 316° |
| 2026-04-24 15:50 | -21.48716 | 127.48043 | 47178 ft | 456 kts | 315° |
| 2026-04-24 15:50 | -21.43917 | 127.43661 | 47178 ft | 456 kts | 315° |
| 2026-04-24 15:51 | -21.39091 | 127.39257 | 47176 ft | 456 kts | 316° |
| 2026-04-24 15:51 | -21.34228 | 127.34827 | 47179 ft | 457 kts | 316° |
| 2026-04-24 15:52 | -21.29400 | 127.30431 | 47187 ft | 457 kts | 316° |
| 2026-04-24 15:52 | -21.24573 | 127.26040 | 47187 ft | 456 kts | 316° |
| 2026-04-24 15:53 | -21.19736 | 127.21642 | 47189 ft | 457 kts | 316° |
| 2026-04-24 15:53 | -21.14885 | 127.17238 | 47188 ft | 457 kts | 316° |
| 2026-04-24 15:54 | -21.10038 | 127.12839 | 47189 ft | 457 kts | 316° |
| 2026-04-24 15:54 | -21.05180 | 127.08436 | 47187 ft | 458 kts | 316° |
| 2026-04-24 15:55 | -21.00347 | 127.04059 | 47185 ft | 457 kts | 316° |
| 2026-04-24 15:55 | -20.95469 | 126.99644 | 47177 ft | 457 kts | 316° |
| 2026-04-24 15:56 | -20.90651 | 126.95290 | 47177 ft | 456 kts | 316° |
| 2026-04-24 15:56 | -20.85781 | 126.90890 | 47169 ft | 456 kts | 316° |
| 2026-04-24 15:57 | -20.80929 | 126.86510 | 47170 ft | 457 kts | 316° |
| 2026-04-24 15:57 | -20.76073 | 126.82131 | 47163 ft | 457 kts | 316° |
| 2026-04-24 15:58 | -20.71224 | 126.77763 | 47159 ft | 457 kts | 316° |
| 2026-04-24 15:58 | -20.66385 | 126.73408 | 47163 ft | 457 kts | 316° |
| 2026-04-24 15:59 | -20.61537 | 126.69048 | 47161 ft | 456 kts | 316° |
| 2026-04-24 15:59 | -20.56694 | 126.64696 | 47154 ft | 456 kts | 316° |
| 2026-04-24 16:00 | -20.51840 | 126.60338 | 47153 ft | 456 kts | 316° |
| 2026-04-24 16:00 | -20.46984 | 126.55981 | 47147 ft | 456 kts | 316° |
| 2026-04-24 16:01 | -20.42120 | 126.51621 | 47145 ft | 456 kts | 316° |
| 2026-04-24 16:01 | -20.37273 | 126.47280 | 47148 ft | 455 kts | 316° |
| 2026-04-24 16:02 | -20.32434 | 126.42950 | 47138 ft | 455 kts | 316° |
| 2026-04-24 16:02 | -20.27591 | 126.38622 | 47138 ft | 455 kts | 316° |
| 2026-04-24 16:03 | -20.22754 | 126.34300 | 47138 ft | 455 kts | 317° |
| 2026-04-24 16:03 | -20.17891 | 126.29960 | 47131 ft | 456 kts | 317° |
| 2026-04-24 16:04 | -20.13056 | 126.25648 | 47125 ft | 455 kts | 317° |
| 2026-04-24 16:04 | -20.08208 | 126.21320 | 47121 ft | 454 kts | 316° |
| 2026-04-24 16:05 | -20.01266 | 126.14608 | 47110 ft | 453 kts | 315° |
| 2026-04-24 16:06 | -19.94285 | 126.07867 | 47101 ft | 453 kts | 315° |
| 2026-04-24 16:07 | -19.87292 | 126.01124 | 47092 ft | 453 kts | 315° |
| 2026-04-24 16:07 | -19.80306 | 125.94395 | 47095 ft | 453 kts | 315° |
| 2026-04-24 16:08 | -19.73327 | 125.87682 | 47089 ft | 453 kts | 315° |
| 2026-04-24 16:09 | -19.66310 | 125.80939 | 47085 ft | 453 kts | 315° |
| 2026-04-24 16:09 | -19.61650 | 125.76468 | 47084 ft | 453 kts | 315° |
| 2026-04-24 16:11 | -19.50008 | 125.65311 | 47082 ft | 452 kts | 315° |
| 2026-04-24 16:11 | -19.45344 | 125.60847 | 47082 ft | 452 kts | 315° |
| 2026-04-24 16:12 | -19.38350 | 125.54160 | 47078 ft | 452 kts | 315° |
| 2026-04-24 16:13 | -19.31334 | 125.47460 | 47078 ft | 453 kts | 315° |
| 2026-04-24 16:14 | -19.21983 | 125.38544 | 47074 ft | 453 kts | 315° |
| 2026-04-24 16:14 | -19.14953 | 125.31850 | 47082 ft | 452 kts | 316° |
| 2026-04-24 16:15 | -19.07936 | 125.25176 | 47081 ft | 452 kts | 316° |
| 2026-04-24 16:16 | -19.00934 | 125.18524 | 47079 ft | 454 kts | 316° |
| 2026-04-24 16:17 | -18.89222 | 125.07416 | 47082 ft | 453 kts | 316° |
| 2026-04-24 16:18 | -18.79805 | 124.98500 | 47085 ft | 454 kts | 316° |
| 2026-04-24 16:19 | -18.72767 | 124.91846 | 47077 ft | 455 kts | 316° |
| 2026-04-24 16:20 | -18.65683 | 124.85156 | 47063 ft | 454 kts | 316° |
| 2026-04-24 16:20 | -18.58636 | 124.78508 | 47055 ft | 454 kts | 316° |
| 2026-04-24 16:21 | -18.51570 | 124.71850 | 47053 ft | 455 kts | 316° |
| 2026-04-24 16:22 | -18.46870 | 124.67426 | 47050 ft | 455 kts | 316° |
| 2026-04-24 16:22 | -18.39791 | 124.60770 | 47036 ft | 453 kts | 316° |
| 2026-04-24 16:23 | -18.35088 | 124.56351 | 47032 ft | 453 kts | 316° |
| 2026-04-24 16:24 | -18.28046 | 124.49743 | 47030 ft | 454 kts | 316° |
| 2026-04-24 16:24 | -18.23326 | 124.45316 | 47025 ft | 455 kts | 316° |
| 2026-04-24 16:25 | -18.18601 | 124.40890 | 47021 ft | 454 kts | 316° |
| 2026-04-24 16:25 | -18.13926 | 124.36511 | 47025 ft | 452 kts | 316° |
| 2026-04-24 16:26 | -18.06840 | 124.29884 | 47029 ft | 455 kts | 316° |
| 2026-04-24 16:27 | -17.99753 | 124.23262 | 47023 ft | 456 kts | 316° |
| 2026-04-24 16:27 | -17.95005 | 124.18829 | 47025 ft | 457 kts | 316° |
| 2026-04-24 16:28 | -17.90264 | 124.14407 | 47022 ft | 456 kts | 316° |
| 2026-04-24 16:28 | -17.83179 | 124.07805 | 47022 ft | 455 kts | 316° |
| 2026-04-24 16:29 | -17.78427 | 124.03380 | 47020 ft | 456 kts | 316° |
| 2026-04-24 16:30 | -17.68922 | 123.94540 | 47016 ft | 456 kts | 316° |
| 2026-04-24 16:30 | -17.64173 | 123.90128 | 47008 ft | 456 kts | 316° |
| 2026-04-24 16:31 | -17.59461 | 123.85754 | 47004 ft | 455 kts | 316° |
| 2026-04-24 16:31 | -17.54952 | 123.81128 | 46999 ft | 455 kts | 313° |
| 2026-04-24 16:32 | -17.50443 | 123.76426 | 46999 ft | 456 kts | 313° |
| 2026-04-24 16:32 | -17.45954 | 123.71753 | 47000 ft | 456 kts | 313° |
| 2026-04-24 16:33 | -17.41474 | 123.67094 | 47002 ft | 455 kts | 313° |
| 2026-04-24 16:33 | -17.36964 | 123.62405 | 47003 ft | 456 kts | 313° |
| 2026-04-24 16:34 | -17.32472 | 123.57740 | 47002 ft | 456 kts | 314° |
| 2026-04-24 16:34 | -17.27988 | 123.53087 | 47000 ft | 456 kts | 314° |
| 2026-04-24 16:35 | -17.23495 | 123.48427 | 46999 ft | 455 kts | 313° |
| 2026-04-24 16:35 | -17.18990 | 123.43758 | 46993 ft | 456 kts | 314° |
| 2026-04-24 16:36 | -17.14485 | 123.39093 | 46999 ft | 456 kts | 314° |
| 2026-04-24 16:36 | -17.10001 | 123.34453 | 46994 ft | 456 kts | 314° |
| 2026-04-24 16:37 | -17.05498 | 123.29796 | 46995 ft | 456 kts | 314° |
| 2026-04-24 16:37 | -17.00973 | 123.25120 | 46989 ft | 457 kts | 314° |
| 2026-04-24 16:38 | -16.96460 | 123.20461 | 46986 ft | 457 kts | 314° |
| 2026-04-24 16:38 | -16.91944 | 123.15801 | 46987 ft | 457 kts | 314° |
| 2026-04-24 16:39 | -16.87440 | 123.11156 | 46986 ft | 457 kts | 314° |
| 2026-04-24 16:39 | -16.82904 | 123.06484 | 46995 ft | 457 kts | 314° |
| 2026-04-24 16:40 | -16.78374 | 123.01817 | 46990 ft | 457 kts | 314° |
| 2026-04-24 16:40 | -16.73859 | 122.97173 | 46992 ft | 457 kts | 314° |
| 2026-04-24 16:41 | -16.69313 | 122.92498 | 46985 ft | 457 kts | 314° |
| 2026-04-24 16:41 | -16.64804 | 122.87865 | 46991 ft | 457 kts | 314° |
| 2026-04-24 16:42 | -16.60291 | 122.83231 | 46986 ft | 457 kts | 314° |
| 2026-04-24 16:42 | -16.55724 | 122.78545 | 46989 ft | 458 kts | 314° |
| 2026-04-24 16:43 | -16.51196 | 122.73902 | 46984 ft | 458 kts | 314° |
| 2026-04-24 16:43 | -16.46660 | 122.69254 | 46986 ft | 459 kts | 314° |
| 2026-04-24 16:44 | -16.42101 | 122.64587 | 46983 ft | 458 kts | 314° |
| 2026-04-24 16:44 | -16.37567 | 122.59949 | 46986 ft | 458 kts | 314° |
| 2026-04-24 16:45 | -16.33027 | 122.55306 | 46984 ft | 459 kts | 314° |
| 2026-04-24 16:45 | -16.28476 | 122.50656 | 46985 ft | 459 kts | 314° |
| 2026-04-24 16:46 | -16.23928 | 122.46012 | 46988 ft | 460 kts | 314° |
| 2026-04-24 16:46 | -16.19356 | 122.41346 | 46982 ft | 460 kts | 314° |
| 2026-04-24 16:47 | -16.14775 | 122.36675 | 46981 ft | 460 kts | 314° |
| 2026-04-24 16:47 | -16.10229 | 122.32044 | 46990 ft | 459 kts | 315° |
| 2026-04-24 16:48 | -16.05667 | 122.27398 | 46984 ft | 460 kts | 315° |
| 2026-04-24 16:48 | -16.01083 | 122.22732 | 46983 ft | 461 kts | 315° |
| 2026-04-24 16:49 | -15.96505 | 122.18078 | 46985 ft | 461 kts | 315° |
| 2026-04-24 16:49 | -15.91933 | 122.13432 | 46977 ft | 461 kts | 315° |
| 2026-04-24 16:50 | -15.87370 | 122.08798 | 46983 ft | 459 kts | 315° |
| 2026-04-24 16:50 | -15.82810 | 122.04170 | 46987 ft | 460 kts | 315° |
| 2026-04-24 16:51 | -15.78207 | 121.99501 | 46989 ft | 460 kts | 315° |
| 2026-04-24 16:51 | -15.73637 | 121.94869 | 46976 ft | 461 kts | 315° |
| 2026-04-24 16:52 | -15.69054 | 121.90228 | 46970 ft | 463 kts | 315° |
| 2026-04-24 16:52 | -15.64455 | 121.85572 | 46975 ft | 464 kts | 315° |
| 2026-04-24 16:53 | -15.59839 | 121.80904 | 46977 ft | 463 kts | 315° |
| 2026-04-24 16:53 | -15.55213 | 121.76228 | 46973 ft | 463 kts | 315° |
| 2026-04-24 16:54 | -15.50616 | 121.71584 | 46969 ft | 464 kts | 315° |
| 2026-04-24 16:54 | -15.45978 | 121.66903 | 46964 ft | 465 kts | 315° |
| 2026-04-24 16:55 | -15.41364 | 121.62247 | 46972 ft | 464 kts | 315° |
| 2026-04-24 16:55 | -15.36748 | 121.57594 | 46965 ft | 463 kts | 315° |
| 2026-04-24 16:56 | -15.32136 | 121.52947 | 46971 ft | 463 kts | 315° |
| 2026-04-24 16:56 | -15.27516 | 121.48296 | 46967 ft | 463 kts | 315° |
| 2026-04-24 16:57 | -15.22907 | 121.43658 | 46964 ft | 464 kts | 315° |
| 2026-04-24 16:57 | -15.18259 | 121.38984 | 46962 ft | 466 kts | 315° |
| 2026-04-24 16:58 | -15.13606 | 121.34308 | 46964 ft | 466 kts | 315° |
| 2026-04-24 16:58 | -15.08971 | 121.29653 | 46965 ft | 466 kts | 315° |
| 2026-04-24 16:59 | -15.04310 | 121.24975 | 46959 ft | 465 kts | 315° |
| 2026-04-24 17:00 | -14.97369 | 121.18015 | 46962 ft | 466 kts | 315° |
| 2026-04-24 17:00 | -14.90386 | 121.11019 | 46962 ft | 467 kts | 315° |
| 2026-04-24 17:01 | -14.83410 | 121.04037 | 46961 ft | 466 kts | 315° |
| 2026-04-24 17:02 | -14.76411 | 120.97038 | 46963 ft | 466 kts | 315° |
| 2026-04-24 17:02 | -14.71779 | 120.92411 | 46958 ft | 466 kts | 315° |
| 2026-04-24 17:03 | -14.64744 | 120.85386 | 46961 ft | 469 kts | 315° |
| 2026-04-24 17:04 | -14.60091 | 120.80745 | 46964 ft | 468 kts | 315° |
| 2026-04-24 17:04 | -14.53032 | 120.73708 | 46963 ft | 469 kts | 315° |
| 2026-04-24 17:05 | -14.48349 | 120.69043 | 46960 ft | 468 kts | 315° |
| 2026-04-24 17:06 | -14.41323 | 120.62051 | 46959 ft | 469 kts | 315° |
| 2026-04-24 17:06 | -14.34277 | 120.55045 | 46958 ft | 469 kts | 315° |
| 2026-04-24 17:07 | -14.29580 | 120.50377 | 46950 ft | 470 kts | 315° |
| 2026-04-24 17:08 | -14.20194 | 120.41061 | 46957 ft | 468 kts | 315° |
| 2026-04-24 17:08 | -14.15491 | 120.36396 | 46960 ft | 469 kts | 315° |
| 2026-04-24 17:09 | -14.06119 | 120.27109 | 46966 ft | 469 kts | 316° |
| 2026-04-24 17:10 | -13.96702 | 120.17789 | 46967 ft | 470 kts | 316° |
| 2026-04-24 17:12 | -13.77846 | 119.99161 | 46948 ft | 469 kts | 316° |
| 2026-04-24 18:54 | -4.00533 | 110.43642 | 46801 ft | 494 kts | 309° |
| 2026-04-24 18:55 | -3.94097 | 110.35598 | 46810 ft | 494 kts | 312° |
| 2026-04-24 18:56 | -3.89617 | 110.30390 | 46802 ft | 495 kts | 312° |
| 2026-04-24 18:56 | -3.85111 | 110.25138 | 46809 ft | 495 kts | 312° |
| 2026-04-24 18:57 | -3.80643 | 110.19933 | 46817 ft | 496 kts | 312° |
| 2026-04-24 18:57 | -3.76134 | 110.14680 | 46814 ft | 496 kts | 312° |
| 2026-04-24 18:58 | -3.71647 | 110.09454 | 46812 ft | 496 kts | 312° |
| 2026-04-24 18:58 | -3.67171 | 110.04241 | 46824 ft | 496 kts | 312° |
| 2026-04-24 18:59 | -3.62674 | 109.99004 | 46814 ft | 496 kts | 312° |
| 2026-04-24 18:59 | -3.58183 | 109.93776 | 46820 ft | 496 kts | 312° |
| 2026-04-24 19:00 | -3.53634 | 109.88480 | 46825 ft | 496 kts | 312° |
| 2026-04-24 19:00 | -3.49093 | 109.83195 | 46823 ft | 497 kts | 312° |
| 2026-04-24 19:01 | -3.44548 | 109.77907 | 46828 ft | 498 kts | 312° |
| 2026-04-24 19:01 | -3.40103 | 109.72736 | 46822 ft | 498 kts | 312° |
| 2026-04-24 19:02 | -3.36335 | 109.68352 | 46821 ft | 498 kts | 312° |
| 2026-04-24 19:02 | -3.31065 | 109.62221 | 46819 ft | 498 kts | 312° |
| 2026-04-24 19:03 | -3.26566 | 109.56990 | 46823 ft | 498 kts | 312° |
| 2026-04-24 19:03 | -3.22043 | 109.51730 | 46825 ft | 499 kts | 312° |
| 2026-04-24 19:04 | -3.17500 | 109.46449 | 46822 ft | 501 kts | 312° |
| 2026-04-24 19:04 | -3.12967 | 109.41180 | 46816 ft | 501 kts | 312° |
| 2026-04-24 19:05 | -3.08411 | 109.35885 | 46810 ft | 501 kts | 312° |
| 2026-04-24 19:05 | -3.03858 | 109.30594 | 46801 ft | 502 kts | 312° |
| 2026-04-24 19:06 | -2.99330 | 109.25333 | 46798 ft | 502 kts | 312° |
| 2026-04-24 19:06 | -2.94760 | 109.20024 | 46796 ft | 502 kts | 312° |
| 2026-04-24 19:07 | -2.90195 | 109.14720 | 46800 ft | 502 kts | 312° |
| 2026-04-24 19:07 | -2.86409 | 109.10337 | 46800 ft | 502 kts | 312° |
| 2026-04-24 19:08 | -2.81075 | 109.04166 | 46801 ft | 502 kts | 312° |
| 2026-04-24 19:08 | -2.76525 | 108.98903 | 46801 ft | 502 kts | 312° |
| 2026-04-24 19:09 | -2.71953 | 108.93617 | 46804 ft | 502 kts | 312° |
| 2026-04-24 19:09 | -2.67380 | 108.88329 | 46813 ft | 501 kts | 312° |
| 2026-04-24 19:10 | -2.62845 | 108.83085 | 46813 ft | 500 kts | 312° |
| 2026-04-24 19:10 | -2.58306 | 108.77838 | 46816 ft | 499 kts | 312° |
| 2026-04-24 19:11 | -2.53776 | 108.72603 | 46815 ft | 499 kts | 312° |
| 2026-04-24 19:11 | -2.49243 | 108.67364 | 46813 ft | 499 kts | 312° |
| 2026-04-24 19:12 | -2.44715 | 108.62113 | 46815 ft | 499 kts | 312° |
| 2026-04-24 19:12 | -2.40173 | 108.56845 | 46820 ft | 499 kts | 312° |
| 2026-04-24 19:13 | -2.36420 | 108.52493 | 46822 ft | 498 kts | 312° |
| 2026-04-24 19:13 | -2.31130 | 108.46359 | 46821 ft | 498 kts | 312° |
| 2026-04-24 19:14 | -2.26641 | 108.41154 | 46822 ft | 497 kts | 312° |
| 2026-04-24 19:14 | -2.22118 | 108.35911 | 46822 ft | 498 kts | 312° |
| 2026-04-24 19:15 | -2.17589 | 108.30660 | 46820 ft | 498 kts | 312° |
| 2026-04-24 19:15 | -2.13081 | 108.25433 | 46818 ft | 497 kts | 312° |
| 2026-04-24 19:16 | -2.06286 | 108.17560 | 46819 ft | 497 kts | 312° |
| 2026-04-24 19:16 | -2.01771 | 108.12324 | 46819 ft | 498 kts | 312° |
| 2026-04-24 19:17 | -1.97284 | 108.07120 | 46819 ft | 497 kts | 312° |
| 2026-04-24 19:17 | -1.92763 | 108.01878 | 46818 ft | 498 kts | 312° |
| 2026-04-24 19:18 | -1.88228 | 107.96620 | 46817 ft | 497 kts | 312° |
| 2026-04-24 19:18 | -1.83734 | 107.91410 | 46808 ft | 497 kts | 312° |
| 2026-04-24 19:19 | -1.79225 | 107.86182 | 46810 ft | 497 kts | 312° |
| 2026-04-24 19:19 | -1.74706 | 107.80944 | 46809 ft | 496 kts | 312° |
| 2026-04-24 19:20 | -1.70220 | 107.75743 | 46807 ft | 497 kts | 312° |
| 2026-04-24 19:20 | -1.65708 | 107.70514 | 46801 ft | 497 kts | 313° |
| 2026-04-24 19:21 | -1.61191 | 107.65279 | 46801 ft | 497 kts | 313° |
| 2026-04-24 19:21 | -1.56668 | 107.60039 | 46801 ft | 497 kts | 312° |
| 2026-04-24 19:22 | -1.52173 | 107.54830 | 46801 ft | 497 kts | 312° |
| 2026-04-24 19:22 | -1.47641 | 107.49579 | 46803 ft | 497 kts | 312° |
| 2026-04-24 19:23 | -1.43144 | 107.44369 | 46801 ft | 498 kts | 313° |
| 2026-04-24 19:23 | -1.38616 | 107.39123 | 46798 ft | 498 kts | 313° |
| 2026-04-24 19:24 | -1.34049 | 107.33913 | 46808 ft | 498 kts | 313° |
| 2026-04-24 19:24 | -1.29460 | 107.28738 | 46817 ft | 499 kts | 313° |
| 2026-04-24 19:25 | -1.24862 | 107.23553 | 46812 ft | 500 kts | 313° |
| 2026-04-24 19:25 | -1.20237 | 107.18337 | 46816 ft | 501 kts | 313° |
| 2026-04-24 19:26 | -1.15615 | 107.13124 | 46816 ft | 501 kts | 313° |
| 2026-04-24 19:26 | -1.11004 | 107.07925 | 46818 ft | 502 kts | 313° |
| 2026-04-24 19:27 | -1.06374 | 107.02704 | 46820 ft | 502 kts | 313° |
| 2026-04-24 19:27 | -1.01728 | 106.97465 | 46821 ft | 504 kts | 313° |
| 2026-04-24 19:28 | -0.97086 | 106.92233 | 46823 ft | 504 kts | 313° |
| 2026-04-24 19:28 | -0.92426 | 106.86977 | 46817 ft | 504 kts | 313° |
| 2026-04-24 19:29 | -0.85478 | 106.79144 | 46819 ft | 504 kts | 313° |
| 2026-04-24 19:30 | -0.80829 | 106.73904 | 46821 ft | 504 kts | 313° |
| 2026-04-24 19:30 | -0.76162 | 106.68643 | 46826 ft | 504 kts | 313° |
| 2026-04-24 19:31 | -0.71521 | 106.63412 | 46826 ft | 503 kts | 313° |
| 2026-04-24 19:31 | -0.66910 | 106.58214 | 46821 ft | 503 kts | 313° |
| 2026-04-24 19:32 | -0.62260 | 106.52972 | 46816 ft | 503 kts | 313° |
| 2026-04-24 19:32 | -0.57646 | 106.47714 | 46823 ft | 503 kts | 313° |
| 2026-04-24 19:33 | -0.53028 | 106.42439 | 46823 ft | 503 kts | 313° |
| 2026-04-24 19:33 | -0.48433 | 106.37191 | 46816 ft | 504 kts | 313° |
| 2026-04-24 19:34 | -0.43822 | 106.31924 | 46808 ft | 503 kts | 313° |
| 2026-04-24 19:34 | -0.39238 | 106.26689 | 46801 ft | 503 kts | 313° |
| 2026-04-24 19:35 | -0.34628 | 106.21424 | 46805 ft | 503 kts | 313° |
| 2026-04-24 19:35 | -0.30029 | 106.16171 | 46811 ft | 503 kts | 313° |
| 2026-04-24 19:36 | -0.25603 | 106.11118 | 46816 ft | 504 kts | 313° |
| 2026-04-24 19:36 | -0.24535 | 106.09898 | 46590 ft | 509 kts | 313° |
| 2026-04-24 19:36 | -0.22204 | 106.07237 | 44971 ft | 509 kts | 313° |
| 2026-04-24 19:36 | -0.19918 | 106.04623 | 44475 ft | 500 kts | 313° |
| 2026-04-24 19:37 | -0.17619 | 106.01999 | 43899 ft | 495 kts | 313° |
| 2026-04-24 19:37 | -0.15362 | 105.99423 | 43356 ft | 495 kts | 313° |
| 2026-04-24 19:37 | -0.13102 | 105.96841 | 42813 ft | 498 kts | 313° |
| 2026-04-24 19:37 | -0.10824 | 105.94240 | 42265 ft | 501 kts | 313° |
| 2026-04-24 19:38 | -0.08505 | 105.91591 | 41704 ft | 505 kts | 313° |
| 2026-04-24 19:38 | -0.06208 | 105.88969 | 41152 ft | 507 kts | 312° |
| 2026-04-24 19:38 | -0.03892 | 105.86324 | 40597 ft | 508 kts | 312° |
| 2026-04-24 19:38 | -0.01554 | 105.83654 | 40059 ft | 511 kts | 313° |
| 2026-04-24 19:39 | 0.00802 | 105.80964 | 39489 ft | 513 kts | 312° |
| 2026-04-24 19:39 | 0.03132 | 105.78302 | 38931 ft | 514 kts | 312° |
| 2026-04-24 19:39 | 0.05507 | 105.75590 | 38367 ft | 515 kts | 313° |
| 2026-04-24 19:39 | 0.07863 | 105.72900 | 37830 ft | 516 kts | 312° |
| 2026-04-24 19:40 | 0.10214 | 105.70216 | 37267 ft | 516 kts | 312° |
| 2026-04-24 19:40 | 0.12565 | 105.67529 | 36702 ft | 516 kts | 312° |
| 2026-04-24 19:40 | 0.14951 | 105.64805 | 36129 ft | 516 kts | 312° |
| 2026-04-24 19:40 | 0.17306 | 105.62116 | 35562 ft | 517 kts | 312° |
| 2026-04-24 19:41 | 0.19651 | 105.59438 | 34996 ft | 518 kts | 312° |
| 2026-04-24 19:41 | 0.22049 | 105.56699 | 34419 ft | 518 kts | 312° |
| 2026-04-24 19:41 | 0.24410 | 105.54004 | 33851 ft | 520 kts | 312° |
| 2026-04-24 19:41 | 0.26775 | 105.51302 | 33280 ft | 521 kts | 312° |
| 2026-04-24 19:42 | 0.29161 | 105.48576 | 32705 ft | 523 kts | 312° |
| 2026-04-24 19:42 | 0.31562 | 105.45836 | 32160 ft | 524 kts | 312° |
| 2026-04-24 19:42 | 0.33986 | 105.43066 | 31588 ft | 527 kts | 312° |
| 2026-04-24 19:42 | 0.36395 | 105.40315 | 31008 ft | 528 kts | 312° |
| 2026-04-24 19:43 | 0.38798 | 105.37570 | 30432 ft | 523 kts | 312° |
| 2026-04-24 19:43 | 0.40987 | 105.34776 | 29837 ft | 509 kts | 302° |
| 2026-04-24 19:43 | 0.42706 | 105.31715 | 29304 ft | 497 kts | 299° |
| 2026-04-24 19:43 | 0.44336 | 105.28718 | 28757 ft | 495 kts | 299° |
| 2026-04-24 19:44 | 0.45979 | 105.25697 | 28218 ft | 493 kts | 299° |
| 2026-04-24 19:44 | 0.47612 | 105.22694 | 27678 ft | 489 kts | 299° |
| 2026-04-24 19:44 | 0.49220 | 105.19737 | 27140 ft | 486 kts | 299° |
| 2026-04-24 19:44 | 0.50829 | 105.16781 | 26610 ft | 482 kts | 299° |
| 2026-04-24 19:45 | 0.52420 | 105.13856 | 26077 ft | 478 kts | 299° |
| 2026-04-24 19:45 | 0.53990 | 105.10970 | 25552 ft | 474 kts | 299° |
| 2026-04-24 19:45 | 0.55557 | 105.08091 | 25032 ft | 471 kts | 300° |
| 2026-04-24 19:45 | 0.57111 | 105.05235 | 24513 ft | 467 kts | 300° |
| 2026-04-24 19:46 | 0.58672 | 105.02366 | 23995 ft | 464 kts | 300° |
| 2026-04-24 19:46 | 0.60204 | 104.99549 | 23485 ft | 461 kts | 300° |
| 2026-04-24 19:46 | 0.61726 | 104.96753 | 22982 ft | 457 kts | 300° |
| 2026-04-24 19:46 | 0.63220 | 104.94006 | 22487 ft | 454 kts | 300° |
| 2026-04-24 19:47 | 0.64719 | 104.91251 | 21999 ft | 451 kts | 300° |
| 2026-04-24 19:47 | 0.66212 | 104.88507 | 21512 ft | 448 kts | 300° |
| 2026-04-24 19:47 | 0.67690 | 104.85790 | 21020 ft | 445 kts | 300° |
| 2026-04-24 19:47 | 0.69175 | 104.83059 | 20525 ft | 442 kts | 300° |
| 2026-04-24 19:48 | 0.70631 | 104.80383 | 20042 ft | 439 kts | 300° |
| 2026-04-24 19:48 | 0.72077 | 104.77724 | 19557 ft | 436 kts | 300° |
| 2026-04-24 19:48 | 0.74944 | 104.72455 | 18601 ft | 431 kts | 300° |
| 2026-04-24 19:49 | 0.77777 | 104.67246 | 17652 ft | 426 kts | 300° |
| 2026-04-24 19:49 | 0.80603 | 104.62051 | 16717 ft | 421 kts | 300° |
| 2026-04-24 19:50 | 0.84730 | 104.54466 | 15346 ft | 411 kts | 299° |
| 2026-04-24 19:50 | 0.86087 | 104.51970 | 14894 ft | 408 kts | 299° |
| 2026-04-24 19:51 | 0.88781 | 104.47016 | 13995 ft | 402 kts | 299° |
| 2026-04-24 19:51 | 0.90105 | 104.44583 | 13552 ft | 400 kts | 298° |
| 2026-04-24 19:52 | 0.92740 | 104.39737 | 12672 ft | 395 kts | 298° |
| 2026-04-24 19:52 | 0.94044 | 104.37337 | 12241 ft | 392 kts | 298° |
| 2026-04-24 19:52 | 0.95334 | 104.34966 | 11808 ft | 388 kts | 298° |
| 2026-04-24 19:52 | 0.96608 | 104.32623 | 11378 ft | 386 kts | 298° |
| 2026-04-24 19:53 | 0.97889 | 104.30267 | 10950 ft | 384 kts | 298° |
| 2026-04-24 19:53 | 0.99159 | 104.27932 | 10524 ft | 376 kts | 298° |
| 2026-04-24 19:53 | 1.01580 | 104.23479 | 9712 ft | 353 kts | 298° |
| 2026-04-24 19:54 | 1.02730 | 104.21365 | 9330 ft | 343 kts | 298° |
| 2026-04-24 19:54 | 1.03855 | 104.19295 | 8955 ft | 334 kts | 298° |
| 2026-04-24 19:54 | 1.04943 | 104.17292 | 8592 ft | 326 kts | 298° |
| 2026-04-24 19:54 | 1.06016 | 104.15314 | 8237 ft | 319 kts | 298° |
| 2026-04-24 19:55 | 1.06719 | 104.14020 | 8001 ft | 314 kts | 298° |
| 2026-04-24 19:55 | 1.08081 | 104.11513 | 7551 ft | 306 kts | 299° |
| 2026-04-24 19:55 | 1.09088 | 104.09660 | 7214 ft | 301 kts | 299° |
| 2026-04-24 19:55 | 1.10078 | 104.07839 | 6885 ft | 296 kts | 299° |
| 2026-04-24 19:56 | 1.11046 | 104.06059 | 6562 ft | 291 kts | 299° |
| 2026-04-24 19:56 | 1.12009 | 104.04288 | 6241 ft | 287 kts | 299° |
| 2026-04-24 19:56 | 1.12958 | 104.02543 | 5927 ft | 286 kts | 299° |
| 2026-04-24 19:56 | 1.13910 | 104.00790 | 5610 ft | 285 kts | 299° |
| 2026-04-24 19:57 | 1.14844 | 103.99073 | 5305 ft | 283 kts | 299° |
| 2026-04-24 19:57 | 1.15783 | 103.97345 | 4987 ft | 281 kts | 300° |
| 2026-04-24 19:57 | 1.16715 | 103.95631 | 4677 ft | 279 kts | 300° |
| 2026-04-24 19:57 | 1.17642 | 103.93926 | 4369 ft | 278 kts | 300° |
| 2026-04-24 19:58 | 1.18554 | 103.92247 | 4066 ft | 277 kts | 300° |
| 2026-04-24 19:58 | 1.19471 | 103.90560 | 3756 ft | 273 kts | 300° |
| 2026-04-24 19:58 | 1.20373 | 103.88901 | 3454 ft | 270 kts | 300° |
| 2026-04-24 19:58 | 1.21265 | 103.87260 | 3159 ft | 266 kts | 300° |
| 2026-04-24 19:59 | 1.22148 | 103.85635 | 2877 ft | 263 kts | 301° |
| 2026-04-24 19:59 | 1.23114 | 103.84109 | 2594 ft | 259 kts | 306° |
| 2026-04-24 19:59 | 1.24094 | 103.82628 | 2311 ft | 256 kts | 306° |
| 2026-04-24 19:59 | 1.25070 | 103.81144 | 2028 ft | 254 kts | 305° |
| 2026-04-24 20:00 | 1.26040 | 103.79683 | 1744 ft | 251 kts | 309° |
| 2026-04-24 20:00 | 1.27365 | 103.78745 | 1521 ft | 212 kts | 347° |
| 2026-04-24 20:00 | 1.28645 | 103.78785 | 1329 ft | 161 kts | 16° |
| 2026-04-24 20:00 | 1.29604 | 103.79142 | 1143 ft | 138 kts | 26° |
| 2026-04-24 20:01 | 1.30429 | 103.79551 | 978 ft | 126 kts | 30° |
| 2026-04-24 20:01 | 1.31192 | 103.79980 | 947 ft | 124 kts | 31° |
| 2026-04-24 20:01 | 1.31941 | 103.80428 | 951 ft | 127 kts | 33° |
| 2026-04-24 20:01 | 1.32699 | 103.80900 | 953 ft | 128 kts | 33° |
| 2026-04-24 20:02 | 1.33201 | 103.81218 | 948 ft | 128 kts | 34° |
| 2026-04-24 20:02 | 1.34213 | 103.81867 | 949 ft | 128 kts | 34° |
| 2026-04-24 20:02 | 1.34959 | 103.82352 | 943 ft | 128 kts | 34° |
| 2026-04-24 20:02 | 1.35712 | 103.82843 | 951 ft | 128 kts | 34° |
| 2026-04-24 20:03 | 1.36464 | 103.83334 | 936 ft | 129 kts | 34° |
| 2026-04-24 20:03 | 1.37223 | 103.83830 | 830 ft | 130 kts | 34° |
| 2026-04-24 20:03 | 1.37978 | 103.84325 | 695 ft | 130 kts | 34° |
| 2026-04-24 20:03 | 1.38743 | 103.84825 | 556 ft | 130 kts | 34° |
| 2026-04-24 20:04 | 1.39503 | 103.85323 | 416 ft | 130 kts | 34° |
| 2026-04-24 20:04 | 1.40268 | 103.85825 | 259 ft | 133 kts | 33° |
| 2026-04-24 20:04 | 1.41037 | 103.86334 | 67 ft | 130 kts | 33° |
| 2026-04-24 20:04 | 1.41698 | 103.86767 | 49 ft | 86 kts | 32° |
| 2026-04-24 20:05 | 1.42048 | 103.86991 | 49 ft | 32 kts | 32° |
| 2026-04-24 20:05 | 1.42199 | 103.87084 | 49 ft | 18 kts | 28° |
| 2026-04-24 20:05 | 1.42285 | 103.87043 | 49 ft | 14 kts | 305° |
| 2026-04-24 20:05 | 1.42341 | 103.86958 | 49 ft | 14 kts | 306° |
| 2026-04-24 20:06 | 1.42326 | 103.86881 | 49 ft | 12 kts | 224° |
| 2026-04-24 20:06 | 1.42263 | 103.86822 | 49 ft | 13 kts | 214° |
| 2026-04-24 20:06 | 1.42152 | 103.86751 | 49 ft | 24 kts | 214° |
| 2026-04-24 20:06 | 1.42046 | 103.86687 | 49 ft | 10 kts | 181° |
| 2026-04-24 20:07 | 1.42020 | 103.86713 | 49 ft | 4 kts | 114° |
| 2026-04-24 20:07 | 1.42014 | 103.86723 | 49 ft | 0 kts | 124° |